KFAT

Fresno Yosemite International Airport

Fresno, California, USA
KFAT 191730Z 1918/2018 VRB03KT 3SM HZ FU BKN200
Issued Valid From Valid To
Nov-19 @ 17:30 UTC
(5 hours ago)
Nov-19 @ 18:00 UTC
(5 hours ago)
Nov-20 @ 18:00 UTC
(in 19 hours)
Nov-19 @ 18:00 to Nov-20 @ 18:00
KFAT 191730Z 1918/2018 VRB03KT 3SM HZ FU BKN200
Wind Visibility Clouds Conditions
Variable at 3 knots 3 miles
  • Broken at 20,000' AGL
  • Haze
  • Smoke
KFAT 191730Z 1918/2018 VRB03KT 3SM HZ FU BKN200
Issued Nov-19 @ 17:30 UTC
(5 hours ago)
Valid From Nov-19 @ 18:00 UTC
(5 hours ago)
Valid To Nov-20 @ 18:00 UTC
(in 19 hours)
Nov-19 @ 18:00 - Nov-20 @ 18:00
Wind Visibility
Variable at 3 knots 3 miles
Clouds
  • Broken at 20,000' AGL
Conditions
  • Haze
  • Smoke